sensor_id;sensor_type;location;lat;lon;timestamp;P1;durP1;ratioP1;P2;durP2;ratioP2
16101;SDS011;56411;52.964;10.540;2022-09-13T00:01:52;8.35;;;4.65;;
16101;SDS011;56411;52.964;10.540;2022-09-13T00:04:19;8.00;;;4.82;;
16101;SDS011;56411;52.964;10.540;2022-09-13T00:06:49;9.23;;;4.90;;
16101;SDS011;56411;52.964;10.540;2022-09-13T00:09:16;7.95;;;4.95;;
16101;SDS011;56411;52.964;10.540;2022-09-13T00:11:42;10.07;;;5.05;;
16101;SDS011;56411;52.964;10.540;2022-09-13T00:14:09;9.15;;;5.10;;
16101;SDS011;56411;52.964;10.540;2022-09-13T00:16:37;8.68;;;4.90;;
16101;SDS011;56411;52.964;10.540;2022-09-13T00:19:04;8.13;;;4.80;;
16101;SDS011;56411;52.964;10.540;2022-09-13T00:21:31;7.78;;;4.45;;
16101;SDS011;56411;52.964;10.540;2022-09-13T00:23:58;9.00;;;4.65;;
16101;SDS011;56411;52.964;10.540;2022-09-13T00:26:26;10.05;;;4.80;;
16101;SDS011;56411;52.964;10.540;2022-09-13T00:28:54;8.93;;;5.13;;
16101;SDS011;56411;52.964;10.540;2022-09-13T00:31:22;8.63;;;4.80;;
16101;SDS011;56411;52.964;10.540;2022-09-13T00:33:52;8.50;;;4.82;;
16101;SDS011;56411;52.964;10.540;2022-09-13T00:36:21;8.45;;;4.82;;
16101;SDS011;56411;52.964;10.540;2022-09-13T00:38:47;9.82;;;5.05;;
16101;SDS011;56411;52.964;10.540;2022-09-13T00:41:15;10.00;;;4.43;;
16101;SDS011;56411;52.964;10.540;2022-09-13T00:43:45;9.05;;;4.70;;
16101;SDS011;56411;52.964;10.540;2022-09-13T00:46:15;7.95;;;4.80;;
16101;SDS011;56411;52.964;10.540;2022-09-13T00:48:46;8.63;;;4.70;;
16101;SDS011;56411;52.964;10.540;2022-09-13T00:51:18;8.52;;;4.78;;
16101;SDS011;56411;52.964;10.540;2022-09-13T00:53:46;8.75;;;4.72;;
16101;SDS011;56411;52.964;10.540;2022-09-13T00:56:17;8.90;;;4.40;;
16101;SDS011;56411;52.964;10.540;2022-09-13T00:58:49;8.38;;;4.80;;
16101;SDS011;56411;52.964;10.540;2022-09-13T01:01:25;9.10;;;4.75;;
16101;SDS011;56411;52.964;10.540;2022-09-13T01:03:57;9.70;;;4.95;;
16101;SDS011;56411;52.964;10.540;2022-09-13T01:06:27;8.05;;;4.53;;
16101;SDS011;56411;52.964;10.540;2022-09-13T01:08:57;13.43;;;6.25;;
16101;SDS011;56411;52.964;10.540;2022-09-13T01:11:28;8.27;;;4.90;;
16101;SDS011;56411;52.964;10.540;2022-09-13T01:14:01;10.63;;;5.00;;
16101;SDS011;56411;52.964;10.540;2022-09-13T01:16:29;10.05;;;5.22;;
16101;SDS011;56411;52.964;10.540;2022-09-13T01:18:56;10.05;;;5.25;;
16101;SDS011;56411;52.964;10.540;2022-09-13T01:21:31;11.70;;;4.88;;
16101;SDS011;56411;52.964;10.540;2022-09-13T01:24:24;8.90;;;5.13;;
16101;SDS011;56411;52.964;10.540;2022-09-13T01:30:11;10.02;;;5.20;;
16101;SDS011;56411;52.964;10.540;2022-09-13T01:32:53;9.75;;;4.95;;
16101;SDS011;56411;52.964;10.540;2022-09-13T01:36:04;9.98;;;5.22;;
16101;SDS011;56411;52.964;10.540;2022-09-13T01:38:52;9.52;;;5.00;;
16101;SDS011;56411;52.964;10.540;2022-09-13T01:41:32;9.80;;;5.05;;
16101;SDS011;56411;52.964;10.540;2022-09-13T01:44:14;10.55;;;5.40;;
16101;SDS011;56411;52.964;10.540;2022-09-13T01:46:49;10.02;;;4.72;;
16101;SDS011;56411;52.964;10.540;2022-09-13T01:49:24;10.95;;;4.93;;
16101;SDS011;56411;52.964;10.540;2022-09-13T01:51:59;10.23;;;4.90;;
16101;SDS011;56411;52.964;10.540;2022-09-13T01:54:31;8.70;;;4.50;;
16101;SDS011;56411;52.964;10.540;2022-09-13T01:57:08;10.15;;;4.95;;
16101;SDS011;56411;52.964;10.540;2022-09-13T01:59:42;10.05;;;5.30;;
16101;SDS011;56411;52.964;10.540;2022-09-13T02:02:16;8.82;;;5.03;;
16101;SDS011;56411;52.964;10.540;2022-09-13T02:04:51;9.95;;;5.28;;
16101;SDS011;56411;52.964;10.540;2022-09-13T02:07:22;9.30;;;4.72;;
16101;SDS011;56411;52.964;10.540;2022-09-13T02:09:55;11.18;;;4.70;;
16101;SDS011;56411;52.964;10.540;2022-09-13T02:12:27;6.88;;;4.03;;
16101;SDS011;56411;52.964;10.540;2022-09-13T02:15:01;8.75;;;4.75;;
16101;SDS011;56411;52.964;10.540;2022-09-13T02:17:33;9.35;;;4.35;;
16101;SDS011;56411;52.964;10.540;2022-09-13T02:20:05;9.82;;;5.13;;
16101;SDS011;56411;52.964;10.540;2022-09-13T02:22:44;12.13;;;5.38;;
16101;SDS011;56411;52.964;10.540;2022-09-13T02:25:17;12.60;;;5.57;;
16101;SDS011;56411;52.964;10.540;2022-09-13T02:27:47;12.60;;;5.53;;
16101;SDS011;56411;52.964;10.540;2022-09-13T02:30:18;13.60;;;6.03;;
16101;SDS011;56411;52.964;10.540;2022-09-13T02:32:48;14.55;;;6.10;;
16101;SDS011;56411;52.964;10.540;2022-09-13T02:35:19;13.45;;;6.60;;
16101;SDS011;56411;52.964;10.540;2022-09-13T02:37:49;12.93;;;6.53;;
16101;SDS011;56411;52.964;10.540;2022-09-13T02:40:23;12.80;;;6.50;;
16101;SDS011;56411;52.964;10.540;2022-09-13T02:42:54;13.32;;;6.90;;
16101;SDS011;56411;52.964;10.540;2022-09-13T02:45:28;14.63;;;7.75;;
16101;SDS011;56411;52.964;10.540;2022-09-13T02:48:03;15.55;;;7.70;;
16101;SDS011;56411;52.964;10.540;2022-09-13T02:50:36;16.00;;;8.88;;
16101;SDS011;56411;52.964;10.540;2022-09-13T02:53:13;15.43;;;8.90;;
16101;SDS011;56411;52.964;10.540;2022-09-13T02:55:49;16.60;;;8.88;;
16101;SDS011;56411;52.964;10.540;2022-09-13T02:58:20;16.00;;;9.30;;
16101;SDS011;56411;52.964;10.540;2022-09-13T03:00:53;15.13;;;9.00;;
16101;SDS011;56411;52.964;10.540;2022-09-13T03:03:22;15.80;;;9.38;;
16101;SDS011;56411;52.964;10.540;2022-09-13T03:05:50;17.92;;;9.70;;
16101;SDS011;56411;52.964;10.540;2022-09-13T03:08:18;16.38;;;9.77;;
16101;SDS011;56411;52.964;10.540;2022-09-13T03:10:48;17.15;;;10.65;;
16101;SDS011;56411;52.964;10.540;2022-09-13T03:13:33;18.17;;;11.00;;
16101;SDS011;56411;52.964;10.540;2022-09-13T03:16:09;19.83;;;11.48;;
16101;SDS011;56411;52.964;10.540;2022-09-13T03:18:54;18.75;;;11.43;;
16101;SDS011;56411;52.964;10.540;2022-09-13T03:21:40;17.55;;;11.25;;
16101;SDS011;56411;52.964;10.540;2022-09-13T03:24:21;18.17;;;11.20;;
16101;SDS011;56411;52.964;10.540;2022-09-13T03:26:55;20.10;;;12.05;;
16101;SDS011;56411;52.964;10.540;2022-09-13T03:29:38;18.08;;;11.18;;
16101;SDS011;56411;52.964;10.540;2022-09-13T03:32:16;19.38;;;11.90;;
16101;SDS011;56411;52.964;10.540;2022-09-13T03:34:52;18.25;;;11.27;;
16101;SDS011;56411;52.964;10.540;2022-09-13T03:37:29;18.40;;;11.43;;
16101;SDS011;56411;52.964;10.540;2022-09-13T03:40:02;17.85;;;11.50;;
16101;SDS011;56411;52.964;10.540;2022-09-13T03:42:36;17.83;;;10.98;;
16101;SDS011;56411;52.964;10.540;2022-09-13T03:45:12;17.05;;;10.70;;
16101;SDS011;56411;52.964;10.540;2022-09-13T03:47:41;18.70;;;12.02;;
16101;SDS011;56411;52.964;10.540;2022-09-13T03:50:13;18.80;;;12.15;;
16101;SDS011;56411;52.964;10.540;2022-09-13T03:52:43;19.45;;;12.60;;
16101;SDS011;56411;52.964;10.540;2022-09-13T03:55:12;20.63;;;12.68;;
16101;SDS011;56411;52.964;10.540;2022-09-13T03:57:39;20.13;;;12.93;;
16101;SDS011;56411;52.964;10.540;2022-09-13T04:00:06;19.77;;;12.10;;
16101;SDS011;56411;52.964;10.540;2022-09-13T04:02:35;19.67;;;12.70;;
16101;SDS011;56411;52.964;10.540;2022-09-13T04:05:01;18.15;;;12.15;;
16101;SDS011;56411;52.964;10.540;2022-09-13T04:07:30;20.92;;;12.63;;
16101;SDS011;56411;52.964;10.540;2022-09-13T04:09:57;20.27;;;12.90;;
16101;SDS011;56411;52.964;10.540;2022-09-13T04:12:24;19.08;;;13.20;;
16101;SDS011;56411;52.964;10.540;2022-09-13T04:14:51;19.20;;;12.93;;
16101;SDS011;56411;52.964;10.540;2022-09-13T04:17:18;22.52;;;12.85;;
16101;SDS011;56411;52.964;10.540;2022-09-13T04:19:44;20.58;;;13.90;;
16101;SDS011;56411;52.964;10.540;2022-09-13T04:22:12;21.17;;;13.60;;
16101;SDS011;56411;52.964;10.540;2022-09-13T04:24:40;19.73;;;12.50;;
16101;SDS011;56411;52.964;10.540;2022-09-13T04:27:08;20.08;;;12.70;;
16101;SDS011;56411;52.964;10.540;2022-09-13T04:29:36;19.95;;;12.48;;
16101;SDS011;56411;52.964;10.540;2022-09-13T04:32:03;19.45;;;12.15;;
16101;SDS011;56411;52.964;10.540;2022-09-13T04:34:30;22.05;;;12.77;;
16101;SDS011;56411;52.964;10.540;2022-09-13T04:36:57;21.13;;;13.70;;
16101;SDS011;56411;52.964;10.540;2022-09-13T04:39:23;23.75;;;14.38;;
16101;SDS011;56411;52.964;10.540;2022-09-13T04:41:52;21.30;;;13.40;;
16101;SDS011;56411;52.964;10.540;2022-09-13T04:44:19;23.15;;;13.73;;
16101;SDS011;56411;52.964;10.540;2022-09-13T04:46:48;20.67;;;13.38;;
16101;SDS011;56411;52.964;10.540;2022-09-13T04:49:16;21.58;;;13.15;;
16101;SDS011;56411;52.964;10.540;2022-09-13T04:51:46;21.73;;;13.55;;
16101;SDS011;56411;52.964;10.540;2022-09-13T04:54:13;21.65;;;14.40;;
16101;SDS011;56411;52.964;10.540;2022-09-13T04:56:40;21.60;;;14.02;;
16101;SDS011;56411;52.964;10.540;2022-09-13T04:59:09;22.38;;;13.18;;
16101;SDS011;56411;52.964;10.540;2022-09-13T05:01:36;21.20;;;12.82;;
16101;SDS011;56411;52.964;10.540;2022-09-13T05:04:03;21.25;;;12.73;;
16101;SDS011;56411;52.964;10.540;2022-09-13T05:06:31;21.20;;;13.25;;
16101;SDS011;56411;52.964;10.540;2022-09-13T05:08:58;20.77;;;12.85;;
16101;SDS011;56411;52.964;10.540;2022-09-13T05:11:25;20.27;;;12.27;;
16101;SDS011;56411;52.964;10.540;2022-09-13T05:13:54;20.43;;;12.60;;
16101;SDS011;56411;52.964;10.540;2022-09-13T05:16:24;21.52;;;12.90;;
16101;SDS011;56411;52.964;10.540;2022-09-13T05:18:53;21.23;;;13.00;;
16101;SDS011;56411;52.964;10.540;2022-09-13T05:21:20;20.58;;;13.25;;
16101;SDS011;56411;52.964;10.540;2022-09-13T05:23:48;20.70;;;12.75;;
16101;SDS011;56411;52.964;10.540;2022-09-13T05:26:15;20.77;;;12.85;;
16101;SDS011;56411;52.964;10.540;2022-09-13T05:28:43;20.00;;;12.93;;
16101;SDS011;56411;52.964;10.540;2022-09-13T05:31:11;20.10;;;12.40;;
16101;SDS011;56411;52.964;10.540;2022-09-13T05:33:42;21.00;;;12.63;;
16101;SDS011;56411;52.964;10.540;2022-09-13T05:36:10;23.13;;;13.32;;
16101;SDS011;56411;52.964;10.540;2022-09-13T05:38:37;19.65;;;12.23;;
16101;SDS011;56411;52.964;10.540;2022-09-13T05:41:04;22.17;;;12.90;;
16101;SDS011;56411;52.964;10.540;2022-09-13T05:43:32;19.23;;;12.93;;
16101;SDS011;56411;52.964;10.540;2022-09-13T05:46:01;19.80;;;12.95;;
16101;SDS011;56411;52.964;10.540;2022-09-13T05:48:29;20.63;;;13.55;;
16101;SDS011;56411;52.964;10.540;2022-09-13T05:51:02;21.52;;;13.43;;
16101;SDS011;56411;52.964;10.540;2022-09-13T05:53:31;20.50;;;13.02;;
16101;SDS011;56411;52.964;10.540;2022-09-13T05:55:57;18.73;;;12.32;;
16101;SDS011;56411;52.964;10.540;2022-09-13T05:58:24;19.50;;;12.35;;
16101;SDS011;56411;52.964;10.540;2022-09-13T06:00:52;20.27;;;12.68;;
16101;SDS011;56411;52.964;10.540;2022-09-13T06:03:19;20.92;;;13.05;;
16101;SDS011;56411;52.964;10.540;2022-09-13T06:05:46;19.88;;;12.55;;
16101;SDS011;56411;52.964;10.540;2022-09-13T06:08:15;20.38;;;12.73;;
16101;SDS011;56411;52.964;10.540;2022-09-13T06:10:42;18.95;;;12.50;;
16101;SDS011;56411;52.964;10.540;2022-09-13T06:13:08;19.92;;;12.95;;
16101;SDS011;56411;52.964;10.540;2022-09-13T06:15:35;19.55;;;12.52;;
16101;SDS011;56411;52.964;10.540;2022-09-13T06:18:02;20.35;;;13.20;;
16101;SDS011;56411;52.964;10.540;2022-09-13T06:20:29;19.35;;;12.73;;
16101;SDS011;56411;52.964;10.540;2022-09-13T06:22:56;19.25;;;12.40;;
16101;SDS011;56411;52.964;10.540;2022-09-13T06:25:24;20.58;;;13.00;;
16101;SDS011;56411;52.964;10.540;2022-09-13T06:27:52;20.55;;;13.00;;
16101;SDS011;56411;52.964;10.540;2022-09-13T06:30:19;19.55;;;12.05;;
16101;SDS011;56411;52.964;10.540;2022-09-13T06:32:45;19.02;;;12.23;;
16101;SDS011;56411;52.964;10.540;2022-09-13T06:35:12;17.55;;;12.23;;
16101;SDS011;56411;52.964;10.540;2022-09-13T06:37:40;18.45;;;12.20;;
16101;SDS011;56411;52.964;10.540;2022-09-13T06:40:08;18.95;;;11.95;;
16101;SDS011;56411;52.964;10.540;2022-09-13T06:42:37;19.67;;;12.85;;
16101;SDS011;56411;52.964;10.540;2022-09-13T06:45:05;19.88;;;12.90;;
16101;SDS011;56411;52.964;10.540;2022-09-13T06:47:32;19.90;;;12.18;;
16101;SDS011;56411;52.964;10.540;2022-09-13T06:49:59;20.30;;;12.90;;
16101;SDS011;56411;52.964;10.540;2022-09-13T06:52:26;20.73;;;13.77;;
16101;SDS011;56411;52.964;10.540;2022-09-13T06:54:53;22.73;;;14.50;;
16101;SDS011;56411;52.964;10.540;2022-09-13T06:57:20;23.40;;;15.43;;
16101;SDS011;56411;52.964;10.540;2022-09-13T06:59:48;24.20;;;16.17;;
16101;SDS011;56411;52.964;10.540;2022-09-13T07:02:15;26.20;;;16.98;;
16101;SDS011;56411;52.964;10.540;2022-09-13T07:04:42;26.48;;;16.95;;
16101;SDS011;56411;52.964;10.540;2022-09-13T07:07:09;25.98;;;16.50;;
16101;SDS011;56411;52.964;10.540;2022-09-13T07:09:36;26.40;;;16.63;;
16101;SDS011;56411;52.964;10.540;2022-09-13T07:12:04;30.35;;;18.50;;
16101;SDS011;56411;52.964;10.540;2022-09-13T07:14:31;31.25;;;18.13;;
16101;SDS011;56411;52.964;10.540;2022-09-13T07:16:59;30.88;;;18.90;;
16101;SDS011;56411;52.964;10.540;2022-09-13T07:19:26;31.83;;;19.60;;
16101;SDS011;56411;52.964;10.540;2022-09-13T07:21:55;31.85;;;19.52;;
16101;SDS011;56411;52.964;10.540;2022-09-13T07:24:23;30.17;;;18.60;;
16101;SDS011;56411;52.964;10.540;2022-09-13T07:26:51;32.65;;;20.10;;
16101;SDS011;56411;52.964;10.540;2022-09-13T07:29:19;31.15;;;19.60;;
16101;SDS011;56411;52.964;10.540;2022-09-13T07:31:48;33.92;;;19.65;;
16101;SDS011;56411;52.964;10.540;2022-09-13T07:34:17;31.48;;;19.25;;
16101;SDS011;56411;52.964;10.540;2022-09-13T07:36:46;30.13;;;19.73;;
16101;SDS011;56411;52.964;10.540;2022-09-13T07:39:14;33.70;;;20.25;;
16101;SDS011;56411;52.964;10.540;2022-09-13T07:41:41;33.17;;;21.10;;
16101;SDS011;56411;52.964;10.540;2022-09-13T07:44:09;35.00;;;21.05;;
16101;SDS011;56411;52.964;10.540;2022-09-13T07:46:36;34.67;;;21.60;;
16101;SDS011;56411;52.964;10.540;2022-09-13T07:49:07;32.67;;;20.95;;
16101;SDS011;56411;52.964;10.540;2022-09-13T07:51:36;35.20;;;21.92;;
16101;SDS011;56411;52.964;10.540;2022-09-13T07:54:06;33.05;;;20.83;;
16101;SDS011;56411;52.964;10.540;2022-09-13T07:56:37;34.05;;;21.13;;
16101;SDS011;56411;52.964;10.540;2022-09-13T07:59:05;35.38;;;21.98;;
16101;SDS011;56411;52.964;10.540;2022-09-13T08:01:36;35.42;;;21.70;;
16101;SDS011;56411;52.964;10.540;2022-09-13T08:04:05;35.08;;;21.38;;
16101;SDS011;56411;52.964;10.540;2022-09-13T08:06:34;36.95;;;22.58;;
16101;SDS011;56411;52.964;10.540;2022-09-13T08:09:04;41.33;;;24.20;;
16101;SDS011;56411;52.964;10.540;2022-09-13T08:11:34;39.80;;;23.85;;
16101;SDS011;56411;52.964;10.540;2022-09-13T08:14:03;39.60;;;24.38;;
16101;SDS011;56411;52.964;10.540;2022-09-13T08:16:31;37.78;;;24.23;;
16101;SDS011;56411;52.964;10.540;2022-09-13T08:19:00;40.40;;;24.77;;
16101;SDS011;56411;52.964;10.540;2022-09-13T08:21:30;39.33;;;24.60;;
16101;SDS011;56411;52.964;10.540;2022-09-13T08:24:00;40.13;;;24.77;;
16101;SDS011;56411;52.964;10.540;2022-09-13T08:26:27;41.45;;;25.67;;
16101;SDS011;56411;52.964;10.540;2022-09-13T08:28:56;42.88;;;27.17;;
16101;SDS011;56411;52.964;10.540;2022-09-13T08:31:24;43.53;;;26.48;;
16101;SDS011;56411;52.964;10.540;2022-09-13T08:33:51;43.85;;;26.77;;
16101;SDS011;56411;52.964;10.540;2022-09-13T08:36:19;41.60;;;26.88;;
16101;SDS011;56411;52.964;10.540;2022-09-13T08:38:48;49.75;;;27.83;;
16101;SDS011;56411;52.964;10.540;2022-09-13T08:41:22;49.30;;;29.85;;
16101;SDS011;56411;52.964;10.540;2022-09-13T08:44:01;50.10;;;28.35;;
16101;SDS011;56411;52.964;10.540;2022-09-13T08:46:34;46.22;;;27.63;;
16101;SDS011;56411;52.964;10.540;2022-09-13T08:49:05;43.72;;;27.35;;
16101;SDS011;56411;52.964;10.540;2022-09-13T08:51:37;43.35;;;26.00;;
16101;SDS011;56411;52.964;10.540;2022-09-13T08:54:08;41.17;;;25.77;;
16101;SDS011;56411;52.964;10.540;2022-09-13T08:56:43;39.65;;;25.02;;
16101;SDS011;56411;52.964;10.540;2022-09-13T08:59:22;35.28;;;23.25;;
16101;SDS011;56411;52.964;10.540;2022-09-13T09:01:58;38.33;;;23.90;;
16101;SDS011;56411;52.964;10.540;2022-09-13T09:04:38;32.75;;;22.15;;
16101;SDS011;56411;52.964;10.540;2022-09-13T09:07:12;33.13;;;21.77;;
16101;SDS011;56411;52.964;10.540;2022-09-13T09:09:43;35.33;;;22.88;;
16101;SDS011;56411;52.964;10.540;2022-09-13T09:12:16;33.83;;;22.33;;
16101;SDS011;56411;52.964;10.540;2022-09-13T09:14:51;35.55;;;22.45;;
16101;SDS011;56411;52.964;10.540;2022-09-13T09:17:24;33.78;;;22.17;;
16101;SDS011;56411;52.964;10.540;2022-09-13T09:19:57;35.80;;;22.65;;
16101;SDS011;56411;52.964;10.540;2022-09-13T09:22:32;35.70;;;22.67;;
16101;SDS011;56411;52.964;10.540;2022-09-13T09:25:00;33.95;;;21.60;;
16101;SDS011;56411;52.964;10.540;2022-09-13T09:27:30;34.47;;;22.60;;
16101;SDS011;56411;52.964;10.540;2022-09-13T09:29:57;33.13;;;22.55;;
16101;SDS011;56411;52.964;10.540;2022-09-13T09:32:35;29.73;;;19.92;;
16101;SDS011;56411;52.964;10.540;2022-09-13T09:35:30;30.00;;;19.95;;
16101;SDS011;56411;52.964;10.540;2022-09-13T09:40:58;28.13;;;18.92;;
16101;SDS011;56411;52.964;10.540;2022-09-13T09:43:31;26.10;;;17.85;;
16101;SDS011;56411;52.964;10.540;2022-09-13T09:46:03;25.35;;;17.58;;
16101;SDS011;56411;52.964;10.540;2022-09-13T09:48:34;23.27;;;16.70;;
16101;SDS011;56411;52.964;10.540;2022-09-13T09:51:06;21.75;;;16.15;;
16101;SDS011;56411;52.964;10.540;2022-09-13T09:53:36;23.70;;;16.63;;
16101;SDS011;56411;52.964;10.540;2022-09-13T09:56:11;18.90;;;12.63;;
16101;SDS011;56411;52.964;10.540;2022-09-13T09:58:48;20.17;;;13.10;;
16101;SDS011;56411;52.964;10.540;2022-09-13T10:01:19;20.13;;;13.85;;
16101;SDS011;56411;52.964;10.540;2022-09-13T10:03:50;21.33;;;13.80;;
16101;SDS011;56411;52.964;10.540;2022-09-13T10:06:20;20.63;;;13.60;;
16101;SDS011;56411;52.964;10.540;2022-09-13T10:08:53;20.30;;;13.45;;
16101;SDS011;56411;52.964;10.540;2022-09-13T10:11:24;17.60;;;11.15;;
16101;SDS011;56411;52.964;10.540;2022-09-13T10:14:05;16.65;;;10.45;;
16101;SDS011;56411;52.964;10.540;2022-09-13T10:16:48;16.02;;;10.80;;
16101;SDS011;56411;52.964;10.540;2022-09-13T10:19:29;16.92;;;11.50;;
16101;SDS011;56411;52.964;10.540;2022-09-13T10:22:00;18.10;;;11.60;;
16101;SDS011;56411;52.964;10.540;2022-09-13T10:24:29;16.83;;;11.07;;
16101;SDS011;56411;52.964;10.540;2022-09-13T10:26:57;17.75;;;11.52;;
16101;SDS011;56411;52.964;10.540;2022-09-13T10:29:26;16.35;;;10.65;;
16101;SDS011;56411;52.964;10.540;2022-09-13T10:31:54;16.35;;;9.70;;
16101;SDS011;56411;52.964;10.540;2022-09-13T10:34:23;13.95;;;8.20;;
16101;SDS011;56411;52.964;10.540;2022-09-13T10:36:53;12.25;;;6.47;;
16101;SDS011;56411;52.964;10.540;2022-09-13T10:39:23;13.00;;;7.30;;
16101;SDS011;56411;52.964;10.540;2022-09-13T10:41:54;14.18;;;7.40;;
16101;SDS011;56411;52.964;10.540;2022-09-13T10:44:24;13.30;;;7.30;;
16101;SDS011;56411;52.964;10.540;2022-09-13T10:46:57;15.07;;;8.55;;
16101;SDS011;56411;52.964;10.540;2022-09-13T10:49:37;14.02;;;8.02;;
16101;SDS011;56411;52.964;10.540;2022-09-13T10:52:22;14.77;;;7.88;;
16101;SDS011;56411;52.964;10.540;2022-09-13T10:54:55;14.50;;;8.63;;
16101;SDS011;56411;52.964;10.540;2022-09-13T10:57:51;14.95;;;8.70;;
16101;SDS011;56411;52.964;10.540;2022-09-13T11:00:22;13.32;;;8.73;;
16101;SDS011;56411;52.964;10.540;2022-09-13T11:03:01;13.52;;;8.75;;
16101;SDS011;56411;52.964;10.540;2022-09-13T11:05:34;12.70;;;7.70;;
16101;SDS011;56411;52.964;10.540;2022-09-13T11:08:14;12.32;;;6.82;;
16101;SDS011;56411;52.964;10.540;2022-09-13T11:10:57;13.35;;;6.75;;
16101;SDS011;56411;52.964;10.540;2022-09-13T11:13:35;12.57;;;7.18;;
16101;SDS011;56411;52.964;10.540;2022-09-13T11:16:13;13.70;;;6.85;;
16101;SDS011;56411;52.964;10.540;2022-09-13T11:18:52;12.07;;;6.53;;
16101;SDS011;56411;52.964;10.540;2022-09-13T11:21:40;11.90;;;6.30;;
16101;SDS011;56411;52.964;10.540;2022-09-13T11:24:21;11.23;;;5.88;;
16101;SDS011;56411;52.964;10.540;2022-09-13T11:27:07;11.52;;;6.43;;
16101;SDS011;56411;52.964;10.540;2022-09-13T11:29:48;13.65;;;6.70;;
16101;SDS011;56411;52.964;10.540;2022-09-13T11:32:33;12.45;;;6.60;;
16101;SDS011;56411;52.964;10.540;2022-09-13T11:35:16;12.10;;;6.88;;
16101;SDS011;56411;52.964;10.540;2022-09-13T11:37:54;12.05;;;6.97;;
16101;SDS011;56411;52.964;10.540;2022-09-13T11:40:29;10.65;;;6.50;;
16101;SDS011;56411;52.964;10.540;2022-09-13T11:43:17;12.02;;;6.47;;
16101;SDS011;56411;52.964;10.540;2022-09-13T11:45:58;11.43;;;6.47;;
16101;SDS011;56411;52.964;10.540;2022-09-13T11:51:26;11.43;;;5.38;;
16101;SDS011;56411;52.964;10.540;2022-09-13T11:54:05;10.65;;;5.43;;
16101;SDS011;56411;52.964;10.540;2022-09-13T11:56:42;10.05;;;5.35;;
16101;SDS011;56411;52.964;10.540;2022-09-13T11:59:14;8.82;;;4.20;;
16101;SDS011;56411;52.964;10.540;2022-09-13T12:01:47;8.05;;;3.60;;
16101;SDS011;56411;52.964;10.540;2022-09-13T12:04:20;9.07;;;4.40;;
16101;SDS011;56411;52.964;10.540;2022-09-13T12:06:51;7.57;;;3.90;;
16101;SDS011;56411;52.964;10.540;2022-09-13T12:09:22;7.72;;;3.65;;
16101;SDS011;56411;52.964;10.540;2022-09-13T12:11:54;10.07;;;3.88;;
16101;SDS011;56411;52.964;10.540;2022-09-13T12:14:26;8.40;;;3.67;;
16101;SDS011;56411;52.964;10.540;2022-09-13T12:17:02;5.85;;;3.10;;
16101;SDS011;56411;52.964;10.540;2022-09-13T12:19:35;6.60;;;2.97;;
16101;SDS011;56411;52.964;10.540;2022-09-13T12:22:08;6.57;;;2.83;;
16101;SDS011;56411;52.964;10.540;2022-09-13T12:24:37;6.82;;;2.90;;
16101;SDS011;56411;52.964;10.540;2022-09-13T12:27:10;5.43;;;2.50;;
16101;SDS011;56411;52.964;10.540;2022-09-13T12:29:43;5.60;;;2.63;;
16101;SDS011;56411;52.964;10.540;2022-09-13T12:32:13;6.28;;;2.70;;
16101;SDS011;56411;52.964;10.540;2022-09-13T12:34:46;7.30;;;3.00;;
16101;SDS011;56411;52.964;10.540;2022-09-13T12:37:20;9.68;;;3.28;;
16101;SDS011;56411;52.964;10.540;2022-09-13T12:40:01;9.85;;;3.53;;
16101;SDS011;56411;52.964;10.540;2022-09-13T12:42:51;9.23;;;3.55;;
16101;SDS011;56411;52.964;10.540;2022-09-13T12:45:36;9.13;;;3.58;;
16101;SDS011;56411;52.964;10.540;2022-09-13T12:51:26;11.82;;;3.95;;
16101;SDS011;56411;52.964;10.540;2022-09-13T12:54:18;10.70;;;3.85;;
16101;SDS011;56411;52.964;10.540;2022-09-13T12:57:16;10.70;;;3.20;;
16101;SDS011;56411;52.964;10.540;2022-09-13T13:00:08;7.95;;;2.78;;
16101;SDS011;56411;52.964;10.540;2022-09-13T13:02:38;8.93;;;2.67;;
16101;SDS011;56411;52.964;10.540;2022-09-13T13:05:17;5.72;;;2.17;;
16101;SDS011;56411;52.964;10.540;2022-09-13T13:07:51;5.50;;;2.25;;
16101;SDS011;56411;52.964;10.540;2022-09-13T13:10:22;5.88;;;1.90;;
16101;SDS011;56411;52.964;10.540;2022-09-13T13:12:52;7.63;;;2.25;;
16101;SDS011;56411;52.964;10.540;2022-09-13T13:18:29;5.03;;;2.00;;
16101;SDS011;56411;52.964;10.540;2022-09-13T13:26:52;4.10;;;1.45;;
16101;SDS011;56411;52.964;10.540;2022-09-13T13:29:20;5.47;;;1.55;;
16101;SDS011;56411;52.964;10.540;2022-09-13T13:32:07;5.18;;;1.60;;
16101;SDS011;56411;52.964;10.540;2022-09-13T13:34:43;7.50;;;1.60;;
16101;SDS011;56411;52.964;10.540;2022-09-13T13:37:26;6.80;;;1.60;;
16101;SDS011;56411;52.964;10.540;2022-09-13T13:40:09;5.65;;;1.55;;
16101;SDS011;56411;52.964;10.540;2022-09-13T13:42:39;5.03;;;1.83;;
16101;SDS011;56411;52.964;10.540;2022-09-13T13:45:22;5.20;;;1.20;;
16101;SDS011;56411;52.964;10.540;2022-09-13T13:47:52;6.32;;;1.38;;
16101;SDS011;56411;52.964;10.540;2022-09-13T13:50:31;4.22;;;1.40;;
16101;SDS011;56411;52.964;10.540;2022-09-13T13:53:13;4.43;;;1.50;;
16101;SDS011;56411;52.964;10.540;2022-09-13T13:55:45;6.03;;;1.52;;
16101;SDS011;56411;52.964;10.540;2022-09-13T13:58:32;4.25;;;1.60;;
16101;SDS011;56411;52.964;10.540;2022-09-13T14:01:12;5.57;;;1.55;;
16101;SDS011;56411;52.964;10.540;2022-09-13T14:06:58;7.75;;;1.60;;
16101;SDS011;56411;52.964;10.540;2022-09-13T14:09:30;6.93;;;1.70;;
16101;SDS011;56411;52.964;10.540;2022-09-13T14:12:13;7.63;;;1.60;;
16101;SDS011;56411;52.964;10.540;2022-09-13T14:14:53;7.07;;;1.55;;
16101;SDS011;56411;52.964;10.540;2022-09-13T14:17:44;5.28;;;1.50;;
16101;SDS011;56411;52.964;10.540;2022-09-13T14:20:31;6.00;;;1.40;;
16101;SDS011;56411;52.964;10.540;2022-09-13T14:23:10;6.22;;;1.35;;
16101;SDS011;56411;52.964;10.540;2022-09-13T14:25:41;4.05;;;1.38;;
16101;SDS011;56411;52.964;10.540;2022-09-13T14:28:11;5.63;;;1.70;;
16101;SDS011;56411;52.964;10.540;2022-09-13T14:30:44;6.28;;;1.40;;
16101;SDS011;56411;52.964;10.540;2022-09-13T14:33:17;5.65;;;1.58;;
16101;SDS011;56411;52.964;10.540;2022-09-13T14:35:55;3.95;;;1.58;;
16101;SDS011;56411;52.964;10.540;2022-09-13T14:38:24;7.45;;;1.80;;
16101;SDS011;56411;52.964;10.540;2022-09-13T14:40:57;4.20;;;1.30;;
16101;SDS011;56411;52.964;10.540;2022-09-13T14:43:26;6.45;;;1.52;;
16101;SDS011;56411;52.964;10.540;2022-09-13T14:45:56;3.60;;;1.40;;
16101;SDS011;56411;52.964;10.540;2022-09-13T14:48:34;4.60;;;1.30;;
16101;SDS011;56411;52.964;10.540;2022-09-13T14:51:06;4.03;;;1.17;;
16101;SDS011;56411;52.964;10.540;2022-09-13T14:53:38;3.45;;;1.40;;
16101;SDS011;56411;52.964;10.540;2022-09-13T14:56:10;5.90;;;1.58;;
16101;SDS011;56411;52.964;10.540;2022-09-13T14:58:41;5.38;;;1.35;;
16101;SDS011;56411;52.964;10.540;2022-09-13T15:01:12;7.78;;;1.63;;
16101;SDS011;56411;52.964;10.540;2022-09-13T15:03:41;5.72;;;1.50;;
16101;SDS011;56411;52.964;10.540;2022-09-13T15:06:18;7.63;;;1.45;;
16101;SDS011;56411;52.964;10.540;2022-09-13T15:08:48;6.35;;;1.58;;
16101;SDS011;56411;52.964;10.540;2022-09-13T15:11:16;4.05;;;1.45;;
16101;SDS011;56411;52.964;10.540;2022-09-13T15:14:01;6.15;;;1.42;;